createdAt,value
2022-11-05T00:02:58.022Z,58.27
2022-11-05T00:08:23.165Z,64.54
2022-11-05T00:13:44.919Z,60.68
2022-11-05T00:19:06.609Z,58.93
2022-11-05T00:24:28.195Z,64.32
2022-11-05T00:29:31.434Z,61.49
2022-11-05T00:34:34.209Z,60.33
2022-11-05T00:39:36.977Z,59.13
2022-11-05T00:44:58.536Z,62.66
2022-11-05T00:50:01.227Z,63.44
2022-11-05T00:55:05.097Z,61.32
2022-11-05T01:00:08.787Z,60.53
2022-11-05T01:05:12.095Z,59.88
2022-11-05T01:10:15.046Z,64.73
2022-11-05T01:15:19.565Z,63.51
2022-11-05T01:20:22.369Z,62.74
2022-11-05T01:25:25.039Z,62.58
2022-11-05T01:30:27.659Z,62.37
2022-11-05T01:35:30.444Z,62.52
2022-11-05T01:40:33.737Z,62.40
2022-11-05T01:45:36.834Z,62.10
2022-11-05T01:50:39.549Z,63.14
2022-11-05T01:55:48.433Z,62.59
2022-11-05T02:00:51.382Z,62.89
2022-11-05T02:05:56.902Z,64.41
2022-11-05T02:10:59.614Z,64.11
2022-11-05T02:16:14.283Z,63.06
2022-11-05T02:21:53.889Z,63.34
2022-11-05T02:27:05.870Z,63.17
2022-11-05T02:32:31.096Z,63.00
2022-11-05T02:37:41.465Z,63.09
2022-11-05T02:43:34.907Z,62.67
2022-11-05T02:48:51.227Z,63.79
2022-11-05T02:54:05.332Z,64.70
2022-11-05T02:59:08.450Z,65.20
2022-11-05T03:04:14.240Z,66.39
2022-11-05T03:09:25.815Z,66.50
2022-11-05T03:14:56.288Z,65.45
2022-11-05T03:20:16.705Z,65.30
2022-11-05T03:25:23.009Z,65.73
2022-11-05T03:30:26.739Z,66.07
2022-11-05T03:35:36.335Z,66.86
2022-11-05T03:40:41.567Z,66.08
2022-11-05T03:45:50.599Z,66.66
2022-11-05T03:51:19.310Z,65.79
2022-11-05T03:57:00.088Z,66.40
2022-11-05T04:02:03.198Z,67.50
2022-11-05T04:07:25.276Z,67.84
2022-11-05T04:12:46.792Z,68.28
2022-11-05T04:17:49.505Z,68.96
2022-11-05T04:23:26.713Z,69.32
2022-11-05T04:28:49.562Z,69.46
2022-11-05T04:33:52.340Z,68.76
2022-11-05T04:38:55.169Z,70.23
2022-11-05T04:43:58.035Z,70.58
2022-11-05T04:49:00.818Z,71.10
2022-11-05T04:54:03.728Z,70.77
2022-11-05T04:59:06.886Z,71.50
2022-11-05T05:04:10.316Z,71.13
2022-11-05T05:09:13.180Z,70.24
2022-11-05T05:14:16.016Z,70.05
2022-11-05T05:19:18.920Z,70.02
2022-11-05T05:24:21.926Z,70.98
2022-11-05T05:29:25.234Z,71.30
2022-11-05T05:34:28.012Z,71.00
2022-11-05T05:39:30.836Z,72.66
2022-11-05T05:44:33.588Z,72.06
2022-11-05T05:49:36.646Z,71.67
2022-11-05T05:54:42.748Z,71.35
2022-11-05T05:59:46.044Z,69.98
2022-11-05T06:04:48.947Z,70.38
2022-11-05T06:09:51.753Z,70.00
2022-11-05T06:14:54.560Z,69.00
2022-11-05T06:19:57.551Z,69.29
2022-11-05T06:25:00.335Z,69.77
2022-11-05T06:30:05.256Z,70.08
2022-11-05T06:35:09.250Z,69.53
2022-11-05T06:40:12.146Z,69.54
2022-11-05T06:45:14.939Z,67.73
2022-11-05T06:50:17.747Z,69.21
2022-11-05T06:55:20.649Z,68.29
2022-11-05T07:00:23.948Z,68.22
2022-11-05T07:05:26.756Z,67.16
2022-11-05T07:10:30.587Z,67.72
2022-11-05T07:15:33.455Z,67.76
2022-11-05T07:20:36.305Z,68.19
2022-11-05T07:25:42.383Z,66.65
2022-11-05T07:30:45.302Z,66.81
2022-11-05T07:35:48.280Z,67.89
2022-11-05T07:40:51.087Z,68.15
2022-11-05T07:45:53.864Z,67.87
2022-11-05T07:50:56.634Z,66.51
2022-11-05T07:55:59.491Z,67.09
2022-11-05T08:01:02.405Z,65.16
2022-11-05T08:06:05.497Z,64.73
2022-11-05T08:11:10.656Z,65.35
2022-11-05T08:16:13.460Z,65.46
2022-11-05T08:21:16.263Z,64.54
2022-11-05T08:26:19.727Z,64.36
2022-11-05T08:31:22.462Z,65.76
2022-11-05T08:36:25.153Z,65.69
2022-11-05T08:41:28.289Z,65.39
2022-11-05T08:46:30.967Z,64.44
2022-11-05T08:51:33.791Z,64.78
2022-11-05T08:56:36.698Z,65.50
2022-11-05T09:01:39.657Z,64.58
2022-11-05T09:06:42.633Z,65.74
2022-11-05T09:12:10.725Z,64.48
2022-11-05T09:17:18.214Z,64.55
2022-11-05T09:22:21.014Z,64.51
2022-11-05T09:27:24.965Z,63.83
2022-11-05T09:32:27.745Z,65.06
2022-11-05T09:37:30.855Z,65.13
2022-11-05T09:42:41.400Z,63.84
2022-11-05T09:47:50.307Z,63.20
2022-11-05T09:52:53.086Z,63.78
2022-11-05T09:58:00.724Z,63.37
2022-11-05T10:03:12.405Z,63.05
2022-11-05T10:08:32.809Z,62.74
2022-11-05T10:13:41.669Z,61.82
2022-11-05T10:18:48.976Z,61.68
2022-11-05T10:23:51.980Z,61.56
2022-11-05T10:28:55.500Z,62.02
2022-11-05T10:34:02.500Z,61.78
2022-11-05T10:39:19.807Z,61.68
2022-11-05T10:44:57.481Z,61.06
2022-11-05T10:50:03.541Z,60.81
2022-11-05T10:55:21.804Z,61.10
2022-11-05T11:00:26.461Z,60.94
2022-11-05T11:05:30.745Z,60.96
2022-11-05T11:10:41.786Z,62.23
2022-11-05T11:15:44.688Z,62.41
2022-11-05T11:20:47.385Z,61.83
2022-11-05T11:26:03.720Z,61.48
2022-11-05T11:31:16.255Z,60.67
2022-11-05T11:36:26.717Z,60.29
2022-11-05T11:41:43.147Z,58.21
2022-11-05T11:46:49.834Z,63.10
2022-11-05T11:51:59.789Z,65.90
2022-11-05T11:57:03.118Z,63.76
2022-11-05T12:02:24.611Z,61.66
2022-11-05T12:07:46.688Z,60.40
2022-11-05T12:13:06.614Z,60.09
2022-11-05T12:18:27.537Z,58.74
2022-11-05T12:23:38.739Z,64.52
2022-11-05T12:29:17.212Z,63.30
2022-11-05T12:34:30.953Z,61.47
2022-11-05T12:39:47.993Z,60.53
2022-11-05T12:45:23.480Z,60.19
2022-11-05T12:50:38.020Z,58.45
2022-11-05T12:55:49.625Z,64.89
2022-11-05T13:01:00.509Z,64.47
2022-11-05T13:06:11.585Z,62.03
2022-11-05T13:11:35.406Z,60.77
2022-11-05T13:16:43.124Z,60.16
2022-11-05T13:21:52.585Z,59.77
2022-11-05T13:27:12.598Z,58.81
2022-11-05T13:32:24.656Z,60.15
2022-11-05T13:37:50.982Z,68.16
2022-11-05T13:43:10.150Z,65.17
2022-11-05T13:48:34.566Z,63.10
2022-11-05T13:54:11.538Z,61.72
2022-11-05T13:59:29.511Z,60.97
2022-11-05T14:04:41.247Z,61.21
2022-11-05T14:09:44.752Z,60.82
2022-11-05T14:14:58.495Z,60.37
2022-11-05T14:20:04.687Z,60.34
2022-11-05T14:25:19.879Z,60.32
2022-11-05T14:30:46.059Z,60.09
2022-11-05T14:35:49.138Z,60.16
2022-11-05T14:41:02.900Z,60.35
2022-11-05T14:46:07.116Z,59.95
2022-11-05T14:51:22.138Z,58.17
2022-11-05T14:56:24.900Z,61.60
2022-11-05T15:01:33.414Z,70.25
2022-11-05T15:06:39.441Z,66.30
2022-11-05T15:11:54.622Z,64.39
2022-11-05T15:17:08.385Z,62.73
2022-11-05T15:22:24.926Z,62.23
2022-11-05T15:27:43.114Z,61.53
2022-11-05T15:32:46.413Z,61.74
2022-11-05T15:37:55.975Z,62.13
2022-11-05T15:43:17.723Z,61.63
2022-11-05T15:48:20.468Z,61.44
2022-11-05T15:53:56.058Z,60.99
2022-11-05T15:59:06.056Z,60.79
2022-11-05T16:04:44.470Z,61.17
2022-11-05T16:09:59.640Z,61.10
2022-11-05T16:15:08.312Z,61.32
2022-11-05T16:20:22.163Z,61.09
2022-11-05T16:25:40.225Z,60.78
2022-11-05T16:31:05.161Z,60.66
2022-11-05T16:36:08.593Z,61.09
2022-11-05T16:41:16.805Z,61.31
2022-11-05T16:46:20.303Z,61.39
2022-11-05T16:51:27.339Z,61.21
2022-11-05T16:56:30.912Z,61.00
2022-11-05T17:01:35.846Z,60.64
2022-11-05T17:06:38.822Z,60.48
2022-11-05T17:11:41.793Z,60.34
2022-11-05T17:16:44.594Z,60.55
2022-11-05T17:21:47.396Z,60.54
2022-11-05T17:26:50.200Z,60.64
2022-11-05T17:31:53.205Z,60.58
2022-11-05T17:36:56.067Z,60.53
2022-11-05T17:41:58.794Z,60.59
2022-11-05T17:47:01.904Z,60.66
2022-11-05T17:52:04.922Z,60.81
2022-11-05T17:57:07.851Z,60.67
2022-11-05T18:02:11.868Z,60.61
2022-11-05T18:07:15.381Z,60.45
2022-11-05T18:12:18.176Z,60.57
2022-11-05T18:17:21.182Z,60.89
2022-11-05T18:22:24.602Z,61.17
2022-11-05T18:27:27.793Z,61.05
2022-11-05T18:32:30.536Z,60.88
2022-11-05T18:37:33.330Z,60.70
2022-11-05T18:42:36.270Z,60.77
2022-11-05T18:47:39.037Z,61.04
2022-11-05T18:52:41.820Z,61.05
2022-11-05T18:57:44.924Z,61.15
2022-11-05T19:02:47.956Z,61.57
2022-11-05T19:07:51.254Z,61.63
2022-11-05T19:12:54.380Z,61.13
2022-11-05T19:17:57.162Z,61.02
2022-11-05T19:22:59.849Z,60.77
2022-11-05T19:28:03.571Z,60.73
2022-11-05T19:33:06.385Z,59.80
2022-11-05T19:38:09.361Z,58.91
2022-11-05T19:43:12.423Z,66.19
2022-11-05T19:48:19.499Z,65.46
2022-11-05T19:53:23.429Z,63.20
2022-11-05T19:58:26.196Z,61.97
2022-11-05T20:03:29.052Z,61.41
2022-11-05T20:08:31.817Z,60.82
2022-11-05T20:13:35.082Z,60.89
2022-11-05T20:18:37.778Z,61.24
2022-11-05T20:23:40.631Z,61.55
2022-11-05T20:28:43.914Z,61.81
2022-11-05T20:33:47.072Z,61.73
2022-11-05T20:38:55.397Z,61.59
2022-11-05T20:43:58.309Z,61.41
2022-11-05T20:49:01.119Z,61.05
2022-11-05T20:54:04.323Z,61.07
2022-11-05T20:59:07.125Z,61.40
2022-11-05T21:04:09.900Z,61.61
2022-11-05T21:09:13.142Z,61.42
2022-11-05T21:14:15.849Z,61.00
2022-11-05T21:19:18.640Z,60.99
2022-11-05T21:24:21.750Z,60.84
2022-11-05T21:29:24.571Z,60.92
2022-11-05T21:34:27.973Z,60.91
2022-11-05T21:39:30.914Z,60.71
2022-11-05T21:44:33.673Z,60.60
2022-11-05T21:49:36.399Z,60.72
2022-11-05T21:54:58.009Z,60.84
2022-11-05T22:00:03.839Z,60.91
2022-11-05T22:05:07.600Z,61.00
2022-11-05T22:10:16.144Z,60.82
2022-11-05T22:15:19.478Z,60.90
2022-11-05T22:20:22.265Z,61.10
2022-11-05T22:25:25.171Z,61.22
2022-11-05T22:30:27.958Z,61.30
2022-11-05T22:35:30.897Z,61.20
2022-11-05T22:40:33.658Z,61.07
2022-11-05T22:45:37.245Z,61.27
2022-11-05T22:50:40.202Z,61.36
2022-11-05T22:55:42.974Z,61.40
2022-11-05T23:00:45.804Z,61.21
2022-11-05T23:05:57.412Z,61.13
2022-11-05T23:11:29.896Z,60.80
2022-11-05T23:16:51.323Z,60.69
2022-11-05T23:22:12.931Z,60.59
2022-11-05T23:27:15.659Z,60.15
2022-11-05T23:32:24.885Z,60.16
2022-11-05T23:38:05.330Z,60.14
2022-11-05T23:43:29.185Z,60.29
2022-11-05T23:48:37.160Z,60.39
2022-11-05T23:53:41.046Z,60.62
2022-11-05T23:58:43.879Z,60.56
